createdAt,value
2018-02-23T00:00:38.542Z,41.37
2018-02-23T00:01:40.702Z,42.38
2018-02-23T00:02:42.198Z,43.13
2018-02-23T00:03:44.334Z,39.83
2018-02-23T00:04:45.718Z,40.67
2018-02-23T00:05:48.578Z,41.55
2018-02-23T00:06:50.298Z,40.05
2018-02-23T00:07:51.707Z,43.90
2018-02-23T00:08:53.090Z,41.22
2018-02-23T00:09:55.362Z,41.63
2018-02-23T00:10:59.790Z,44.85
2018-02-23T00:12:37.410Z,37.47
2018-02-23T00:13:39.074Z,48.17
2018-02-23T00:14:40.996Z,44.10
2018-02-23T00:15:44.402Z,41.47
2018-02-23T00:16:47.506Z,39.28
2018-02-23T00:17:49.897Z,41.58
2018-02-23T00:18:51.306Z,44.97
2018-02-23T00:19:53.422Z,42.78
2018-02-23T00:20:55.101Z,43.35
2018-02-23T00:21:56.973Z,42.00
2018-02-23T00:22:59.950Z,39.92
2018-02-23T00:24:02.153Z,42.25
2018-02-23T00:25:05.821Z,42.92
2018-02-23T00:26:08.840Z,41.85
2018-02-23T00:27:10.668Z,42.22
2018-02-23T00:28:12.366Z,42.15
2018-02-23T00:29:13.762Z,39.50
2018-02-23T00:30:15.152Z,41.58
2018-02-23T00:31:16.554Z,44.00
2018-02-23T00:32:17.956Z,38.83
2018-02-23T00:33:19.630Z,44.45
2018-02-23T00:34:21.038Z,43.05
2018-02-23T00:35:22.442Z,45.97
2018-02-23T00:36:23.852Z,45.12
2018-02-23T00:37:25.316Z,42.83
2018-02-23T00:38:28.486Z,41.22
2018-02-23T00:39:29.910Z,43.45
2018-02-23T00:40:32.406Z,45.78
2018-02-23T00:41:36.017Z,41.65
2018-02-23T00:42:38.144Z,40.67
2018-02-23T00:43:40.156Z,43.00
2018-02-23T00:44:41.550Z,40.53
2018-02-23T00:45:42.948Z,40.08
2018-02-23T00:46:44.346Z,44.05
2018-02-23T00:47:45.726Z,41.72
2018-02-23T00:48:47.370Z,40.42
2018-02-23T00:49:48.762Z,37.45
2018-02-23T00:50:50.558Z,39.33
2018-02-23T00:52:50.666Z,40.25
2018-02-23T00:53:52.223Z,44.88
2018-02-23T00:54:53.670Z,42.70
2018-02-23T00:55:55.220Z,42.35
2018-02-23T00:56:57.808Z,42.05
2018-02-23T00:57:59.250Z,42.58
2018-02-23T00:59:00.693Z,42.28
2018-02-23T01:01:00.022Z,40.80
2018-02-23T01:02:02.892Z,45.58
2018-02-23T01:03:06.985Z,37.80
2018-02-23T01:04:08.873Z,41.83
2018-02-23T01:05:10.709Z,42.67
2018-02-23T01:06:12.163Z,46.58
2018-02-23T01:07:14.285Z,39.15
2018-02-23T01:08:15.670Z,40.20
2018-02-23T01:09:17.358Z,39.65
2018-02-23T01:10:19.494Z,42.85
2018-02-23T01:11:20.876Z,40.80
2018-02-23T01:12:23.394Z,37.83
2018-02-23T01:13:24.794Z,34.25
2018-02-23T01:14:27.097Z,40.70
2018-02-23T01:15:29.198Z,41.55
2018-02-23T01:16:30.603Z,42.83
2018-02-23T01:17:34.906Z,37.90
2018-02-23T01:18:38.002Z,37.20
2018-02-23T01:19:41.326Z,40.15
2018-02-23T01:20:43.482Z,41.75
2018-02-23T01:21:44.878Z,39.47
2018-02-23T01:22:46.262Z,37.47
2018-02-23T01:23:48.406Z,39.22
2018-02-23T01:24:51.208Z,37.83
2018-02-23T01:25:54.114Z,43.30
2018-02-23T01:26:55.939Z,44.30
2018-02-23T01:27:58.074Z,42.90
2018-02-23T01:28:59.614Z,37.28
2018-02-23T01:30:02.727Z,39.28
2018-02-23T01:31:05.818Z,40.85
2018-02-23T01:32:07.861Z,40.40
2018-02-23T01:33:09.714Z,40.90
2018-02-23T01:34:11.186Z,40.03
2018-02-23T01:35:14.058Z,39.40
2018-02-23T01:36:15.442Z,45.60
2018-02-23T01:37:16.828Z,39.70
2018-02-23T01:38:18.211Z,40.38
2018-02-23T01:39:19.623Z,38.20
2018-02-23T01:40:21.286Z,40.53
2018-02-23T01:41:23.422Z,41.70
2018-02-23T01:42:25.941Z,38.05
2018-02-23T01:43:29.331Z,41.67
2018-02-23T01:44:30.727Z,41.75
2018-02-23T01:45:34.710Z,38.00
2018-02-23T01:46:37.729Z,38.15
2018-02-23T01:47:39.509Z,39.83
2018-02-23T01:48:41.702Z,38.90
2018-02-23T01:49:43.079Z,37.23
2018-02-23T01:51:43.865Z,41.88
2018-02-23T01:52:45.998Z,40.80
2018-02-23T01:53:47.394Z,39.88
2018-02-23T01:54:48.794Z,40.20
2018-02-23T01:55:50.186Z,37.97
2018-02-23T01:56:52.351Z,44.05
2018-02-23T01:57:54.522Z,40.80
2018-02-23T01:58:56.569Z,38.00
2018-02-23T01:59:58.597Z,42.35
2018-02-23T02:01:00.023Z,35.85
2018-02-23T02:02:04.799Z,44.58
2018-02-23T02:03:07.992Z,43.67
2018-02-23T02:04:11.338Z,40.03
2018-02-23T02:05:13.470Z,39.35
2018-02-23T02:06:14.867Z,43.30
2018-02-23T02:07:17.670Z,43.38
2018-02-23T02:08:19.066Z,41.80
2018-02-23T02:09:20.454Z,39.72
2018-02-23T02:10:23.320Z,40.95
2018-02-23T02:11:24.723Z,44.22
2018-02-23T02:12:27.703Z,40.63
2018-02-23T02:13:30.906Z,44.35
2018-02-23T02:14:34.333Z,41.50
2018-02-23T02:15:37.279Z,41.28
2018-02-23T02:16:39.286Z,44.03
2018-02-23T02:17:41.077Z,39.15
2018-02-23T02:19:24.470Z,42.90
2018-02-23T02:20:26.243Z,38.15
2018-02-23T02:21:29.070Z,45.22
2018-02-23T02:22:32.586Z,42.13
2018-02-23T02:23:36.332Z,42.92
2018-02-23T02:24:38.252Z,44.20
2018-02-23T02:26:25.752Z,39.83
2018-02-23T02:27:27.582Z,39.92
2018-02-23T02:28:29.330Z,46.70
2018-02-23T02:29:30.763Z,43.97
2018-02-23T02:30:35.107Z,42.08
2018-02-23T02:31:37.065Z,44.38
2018-02-23T02:32:39.665Z,47.17
2018-02-23T02:33:41.874Z,45.92
2018-02-23T02:34:44.986Z,46.95
2018-02-23T02:35:46.375Z,42.63
2018-02-23T02:36:47.775Z,43.53
2018-02-23T02:37:49.898Z,43.65
2018-02-23T02:38:52.028Z,41.37
2018-02-23T02:39:53.875Z,43.97
2018-02-23T02:40:56.388Z,40.58
2018-02-23T02:41:58.248Z,43.25
2018-02-23T02:42:59.665Z,39.92
2018-02-23T02:44:01.082Z,39.15
2018-02-23T02:54:48.350Z,40.78
2018-02-23T02:55:49.750Z,46.50
2018-02-23T02:56:51.136Z,43.85
2018-02-23T02:57:53.269Z,45.03
2018-02-23T02:58:55.749Z,41.72
2018-02-23T02:59:59.261Z,46.90
2018-02-23T03:01:00.636Z,46.20
2018-02-23T03:02:02.201Z,45.12
2018-02-23T03:03:04.457Z,41.55
2018-02-23T03:04:06.745Z,41.50
2018-02-23T03:05:09.226Z,43.20
2018-02-23T03:06:10.603Z,41.75
2018-02-23T03:07:12.026Z,44.05
2018-02-23T03:08:14.154Z,42.72
2018-02-23T03:09:15.594Z,44.25
2018-02-23T03:10:18.473Z,45.42
2018-02-23T03:11:19.881Z,44.85
2018-02-23T03:12:22.097Z,42.08
2018-02-23T03:13:23.491Z,45.65
2018-02-23T03:14:24.869Z,44.83
2018-02-23T03:15:26.259Z,46.17
2018-02-23T03:16:28.385Z,44.17
2018-02-23T03:17:30.499Z,46.88
2018-02-23T03:18:32.438Z,46.37
2018-02-23T03:19:34.258Z,47.83
2018-02-23T03:20:37.598Z,43.95
2018-02-23T03:21:39.121Z,47.22
2018-02-23T03:22:40.499Z,48.15
2018-02-23T03:23:41.888Z,43.40
2018-02-23T03:24:43.277Z,43.38
2018-02-23T03:25:46.196Z,44.15
2018-02-23T03:26:48.384Z,42.45
2018-02-23T03:27:50.474Z,40.67
2018-02-23T03:28:52.066Z,44.42
2018-02-23T03:29:53.609Z,43.85
2018-02-23T03:30:55.266Z,47.03
2018-02-23T03:31:56.678Z,44.47
2018-02-23T03:32:58.055Z,41.95
2018-02-23T03:33:59.443Z,42.95
2018-02-23T03:35:00.852Z,40.88
2018-02-23T03:36:03.117Z,41.30
2018-02-23T03:37:05.645Z,44.10
2018-02-23T03:38:07.217Z,43.20
2018-02-23T03:39:08.799Z,47.33
2018-02-23T03:40:10.189Z,47.25
2018-02-23T03:41:11.845Z,45.17
2018-02-23T03:42:13.246Z,42.88
2018-02-23T03:43:15.362Z,41.67
2018-02-23T03:44:16.748Z,37.58
2018-02-23T03:45:19.239Z,40.72
2018-02-23T03:46:20.647Z,43.83
2018-02-23T03:47:22.189Z,40.38
2018-02-23T03:48:23.823Z,42.17
2018-02-23T03:49:25.985Z,42.55
2018-02-23T03:50:27.391Z,44.65
2018-02-23T03:51:29.078Z,41.55
2018-02-23T03:52:31.455Z,45.30
2018-02-23T03:53:33.457Z,40.20
2018-02-23T03:54:35.394Z,45.58
2018-02-23T03:55:38.474Z,42.10
2018-02-23T03:56:40.027Z,43.45
2018-02-23T03:57:41.415Z,42.50
2018-02-23T03:58:42.793Z,42.28
2018-02-23T03:59:44.187Z,48.05
2018-02-23T04:00:45.581Z,46.50
2018-02-23T04:01:48.473Z,41.97
2018-02-23T04:02:49.851Z,42.20
2018-02-23T04:03:51.252Z,41.85
2018-02-23T04:04:52.645Z,44.10
2018-02-23T04:05:55.887Z,50.20
2018-02-23T04:06:57.681Z,44.28
2018-02-23T04:08:00.818Z,44.28
2018-02-23T04:09:03.515Z,46.10
2018-02-23T04:10:05.709Z,45.15
2018-02-23T04:11:08.559Z,39.83
2018-02-23T04:12:10.259Z,43.13
2018-02-23T04:13:11.958Z,44.00
2018-02-23T04:14:13.348Z,41.20
2018-02-23T04:15:15.489Z,41.08
2018-02-23T04:16:18.385Z,41.97
2018-02-23T04:17:20.504Z,39.63
2018-02-23T04:18:24.133Z,40.92
2018-02-23T04:19:26.681Z,42.78
2018-02-23T04:20:28.146Z,40.97
2018-02-23T04:21:29.513Z,44.60
2018-02-23T04:22:30.895Z,48.15
2018-02-23T04:23:34.785Z,43.10
2018-02-23T04:25:37.081Z,42.10
2018-02-23T04:26:38.773Z,44.30
2018-02-23T04:27:40.925Z,42.42
2018-02-23T04:28:42.373Z,42.88
2018-02-23T04:29:43.759Z,42.00
2018-02-23T04:30:45.881Z,44.20
2018-02-23T04:31:47.292Z,44.22
2018-02-23T04:32:49.404Z,47.00
2018-02-23T04:33:51.113Z,43.65
2018-02-23T04:34:54.403Z,44.17
2018-02-23T04:35:56.249Z,42.83
2018-02-23T04:37:32.438Z,42.62
2018-02-23T04:38:36.145Z,47.33
2018-02-23T04:39:39.418Z,41.47
2018-02-23T04:40:41.167Z,41.28
2018-02-23T04:41:42.562Z,41.33
2018-02-23T04:42:43.955Z,40.72
2018-02-23T04:43:45.353Z,44.72
2018-02-23T04:44:47.047Z,46.00
2018-02-23T04:45:48.436Z,44.25
2018-02-23T04:47:34.187Z,37.83
2018-02-23T04:48:37.058Z,43.87
2018-02-23T04:49:38.836Z,49.55
2018-02-23T04:50:41.976Z,43.97
2018-02-23T04:51:44.103Z,44.17
2018-02-23T04:52:46.222Z,41.47
2018-02-23T04:53:47.612Z,41.13
2018-02-23T04:54:48.984Z,41.28
2018-02-23T04:55:51.145Z,45.72
2018-02-23T04:56:53.273Z,40.40
2018-02-23T04:57:55.830Z,45.30
2018-02-23T04:58:57.423Z,41.45
2018-02-23T05:00:57.569Z,41.97
2018-02-23T05:01:59.005Z,40.90
2018-02-23T05:03:01.699Z,43.35
2018-02-23T05:04:04.548Z,45.12
2018-02-23T05:05:07.124Z,44.28
2018-02-23T05:06:09.842Z,46.80
2018-02-23T05:07:11.267Z,47.40
2018-02-23T05:08:12.685Z,39.90
2018-02-23T05:09:14.070Z,38.97
2018-02-23T05:10:15.453Z,41.75
2018-02-23T05:11:18.361Z,43.45
2018-02-23T05:12:19.752Z,41.83
2018-02-23T05:13:21.146Z,43.00
2018-02-23T05:14:23.307Z,43.78
2018-02-23T05:15:25.035Z,45.15
2018-02-23T05:16:26.973Z,43.63
2018-02-23T05:17:28.578Z,41.37
2018-02-23T05:18:29.978Z,41.40
2018-02-23T05:19:31.783Z,42.85
2018-02-23T05:20:35.384Z,44.95
2018-02-23T05:21:37.337Z,45.30
2018-02-23T05:22:39.069Z,45.72
2018-02-23T05:23:41.438Z,43.40
2018-02-23T05:24:42.831Z,44.85
2018-02-23T05:25:44.943Z,46.80
2018-02-23T05:26:46.349Z,44.35
2018-02-23T05:27:47.726Z,45.75
2018-02-23T05:28:49.896Z,42.92
2018-02-23T05:29:51.287Z,44.45
2018-02-23T05:30:52.682Z,41.30
2018-02-23T05:31:55.506Z,42.72
2018-02-23T05:32:57.151Z,46.80
2018-02-23T05:33:58.544Z,45.35
2018-02-23T05:35:02.980Z,46.33
2018-02-23T05:36:05.813Z,43.15
2018-02-23T05:37:08.831Z,49.00
2018-02-23T05:38:11.435Z,48.30
2018-02-23T05:39:12.826Z,47.80
2018-02-23T05:40:14.217Z,46.53
2018-02-23T05:41:16.345Z,47.72
2018-02-23T05:42:17.771Z,46.00
2018-02-23T05:43:19.197Z,47.00
2018-02-23T05:44:20.567Z,47.20
2018-02-23T05:45:23.464Z,46.45
2018-02-23T05:46:25.335Z,47.40
2018-02-23T05:47:28.585Z,42.42
2018-02-23T05:48:29.974Z,47.22
2018-02-23T05:49:33.749Z,48.42
2018-02-23T05:50:35.986Z,44.05
2018-02-23T05:51:38.778Z,47.38
2018-02-23T05:52:40.827Z,44.78
2018-02-23T05:54:39.565Z,47.67
2018-02-23T05:55:41.087Z,39.92
2018-02-23T05:56:42.571Z,46.22
2018-02-23T05:57:43.978Z,42.38
2018-02-23T05:58:45.371Z,44.92
2018-02-23T05:59:46.779Z,45.45
2018-02-23T06:00:48.177Z,44.95
2018-02-23T06:01:49.571Z,41.67
2018-02-23T06:02:50.981Z,43.72
2018-02-23T06:03:54.092Z,42.45
2018-02-23T06:04:56.155Z,47.05
2018-02-23T06:06:52.422Z,42.00
2018-02-23T06:07:54.035Z,45.20
2018-02-23T06:10:42.649Z,42.38
2018-02-23T06:11:44.037Z,45.63
2018-02-23T06:13:37.292Z,45.42
2018-02-23T06:14:40.603Z,46.45
2018-02-23T06:15:48.224Z,44.75
2018-02-23T06:16:49.615Z,39.50
2018-02-23T06:17:57.289Z,46.55
2018-02-23T06:19:01.289Z,44.03
2018-02-23T06:20:08.131Z,45.33
2018-02-23T06:21:09.789Z,44.85
2018-02-23T06:22:12.913Z,46.90
2018-02-23T06:23:14.315Z,44.38
2018-02-23T06:24:15.732Z,41.37
2018-02-23T06:25:17.140Z,45.42
2018-02-23T06:26:18.546Z,42.38
2018-02-23T06:27:19.971Z,44.50
2018-02-23T06:28:23.076Z,47.08
2018-02-23T06:29:24.963Z,47.35
2018-02-23T06:30:26.715Z,45.70
2018-02-23T06:31:29.690Z,44.80
2018-02-23T06:32:33.893Z,42.85
2018-02-23T06:33:36.907Z,45.95
2018-02-23T06:34:38.923Z,43.97
2018-02-23T06:35:40.551Z,46.03
2018-02-23T06:36:43.765Z,47.95
2018-02-23T06:37:45.303Z,46.25
2018-02-23T06:38:46.787Z,47.00
2018-02-23T06:39:48.299Z,44.03
2018-02-23T06:40:50.619Z,42.00
2018-02-23T06:41:52.224Z,43.90
2018-02-23T06:42:56.046Z,44.35
2018-02-23T06:43:59.224Z,43.92
2018-02-23T06:45:01.723Z,46.58
2018-02-23T06:46:04.311Z,43.33
2018-02-23T06:47:23.682Z,47.72
2018-02-23T06:48:25.731Z,48.95
2018-02-23T06:49:28.902Z,46.80
2018-02-23T06:50:31.207Z,48.20
2018-02-23T06:51:34.193Z,42.38
2018-02-23T06:53:13.982Z,45.35
2018-02-23T06:54:15.401Z,47.75
2018-02-23T06:55:16.804Z,45.03
2018-02-23T06:56:18.471Z,45.85
2018-02-23T06:57:19.879Z,48.15
2018-02-23T06:58:21.279Z,46.92
2018-02-23T06:59:22.660Z,49.42
2018-02-23T07:00:24.374Z,43.10
2018-02-23T07:01:26.347Z,45.33
2018-02-23T07:02:27.908Z,45.72
2018-02-23T07:03:29.324Z,46.20
2018-02-23T07:04:31.647Z,46.22
2018-02-23T07:05:34.422Z,47.03
2018-02-23T07:06:37.846Z,45.85
2018-02-23T07:07:40.405Z,45.75
2018-02-23T07:08:41.807Z,46.63
2018-02-23T07:09:43.935Z,46.35
2018-02-23T07:10:45.325Z,47.58
2018-02-23T07:11:46.726Z,48.08
2018-02-23T07:12:48.122Z,51.33
2018-02-23T07:13:50.289Z,47.55
2018-02-23T07:14:51.667Z,44.50
2018-02-23T07:15:53.068Z,46.05
2018-02-23T07:16:55.053Z,41.92
2018-02-23T07:17:58.506Z,44.85
2018-02-23T07:19:00.225Z,46.55
2018-02-23T07:20:03.777Z,41.88
2018-02-23T07:21:06.411Z,41.50
2018-02-23T07:22:08.027Z,43.45
2018-02-23T07:23:09.431Z,45.80
2018-02-23T07:24:11.087Z,47.15
2018-02-23T07:25:12.478Z,46.45
2018-02-23T07:26:14.598Z,46.72
2018-02-23T07:27:16.122Z,44.03
2018-02-23T07:28:18.853Z,44.38
2018-02-23T07:29:20.261Z,42.35
2018-02-23T07:30:23.923Z,46.15
2018-02-23T07:31:25.835Z,46.75
2018-02-23T07:32:29.187Z,48.55
2018-02-23T07:33:30.945Z,44.55
2018-02-23T07:34:35.412Z,46.37
2018-02-23T07:35:38.716Z,46.90
2018-02-23T07:36:40.215Z,41.75
2018-02-23T07:37:41.897Z,48.22
2018-02-23T07:38:44.047Z,43.25
2018-02-23T07:39:46.186Z,39.80
2018-02-23T07:40:47.594Z,49.70
2018-02-23T07:41:50.103Z,43.97
2018-02-23T07:42:51.505Z,45.97
2018-02-23T07:43:53.742Z,43.15
2018-02-23T07:44:57.330Z,47.53
2018-02-23T07:45:59.445Z,48.40
2018-02-23T07:47:02.210Z,41.45
2018-02-23T07:48:05.287Z,46.97
2018-02-23T07:49:08.678Z,43.83
2018-02-23T07:50:10.567Z,41.55
2018-02-23T07:51:12.774Z,44.97
2018-02-23T07:52:14.933Z,42.33
2018-02-23T07:53:16.375Z,48.15
2018-02-23T07:54:17.777Z,43.45
2018-02-23T07:55:19.168Z,45.85
2018-02-23T07:56:20.581Z,42.13
2018-02-23T07:57:23.707Z,43.67
2018-02-23T07:58:26.635Z,45.40
2018-02-23T07:59:29.817Z,44.28
2018-02-23T08:00:33.982Z,45.20
2018-02-23T08:01:37.387Z,41.67
2018-02-23T08:02:39.227Z,42.05
2018-02-23T08:03:40.730Z,42.20
2018-02-23T08:04:43.265Z,44.70
2018-02-23T08:05:45.781Z,46.05
2018-02-23T08:06:48.337Z,45.50
2018-02-23T08:07:50.464Z,43.87
2018-02-23T08:08:51.871Z,48.30
2018-02-23T08:09:53.251Z,49.33
2018-02-23T08:10:56.278Z,46.08
2018-02-23T08:11:58.952Z,45.38
2018-02-23T08:13:00.878Z,41.03
2018-02-23T08:14:04.243Z,46.60
2018-02-23T08:15:07.715Z,44.63
2018-02-23T08:16:09.523Z,44.20
2018-02-23T08:17:10.933Z,44.55
2018-02-23T08:18:14.027Z,46.55
2018-02-23T08:19:15.711Z,41.47
2018-02-23T08:20:18.841Z,44.83
2018-02-23T08:21:20.215Z,41.78
2018-02-23T08:22:21.973Z,43.00
2018-02-23T08:23:24.099Z,43.95
2018-02-23T08:24:26.655Z,46.05
2018-02-23T08:25:28.831Z,48.83
2018-02-23T08:26:30.240Z,43.53
2018-02-23T08:27:35.264Z,45.60
2018-02-23T08:28:37.709Z,49.75
2018-02-23T08:29:39.691Z,47.65
2018-02-23T08:30:41.836Z,49.28
2018-02-23T08:31:43.227Z,47.25
2018-02-23T08:32:46.305Z,48.42
2018-02-23T08:33:47.697Z,45.50
2018-02-23T08:34:49.381Z,49.40
2018-02-23T08:35:51.518Z,44.42
2018-02-23T08:36:53.651Z,47.10
2018-02-23T08:37:55.418Z,46.13
2018-02-23T08:38:57.309Z,45.60
2018-02-23T08:39:58.741Z,44.97
2018-02-23T08:41:00.118Z,44.03
2018-02-23T08:42:03.201Z,44.45
2018-02-23T08:43:06.102Z,42.88
2018-02-23T08:44:09.302Z,48.33
2018-02-23T08:45:11.642Z,40.95
2018-02-23T08:46:14.747Z,42.55
2018-02-23T08:47:18.623Z,45.65
2018-02-23T08:48:21.769Z,46.58
2018-02-23T08:49:24.064Z,49.03
2018-02-23T08:50:26.557Z,44.20
2018-02-23T08:51:29.326Z,45.90
2018-02-23T08:52:33.143Z,44.53
2018-02-23T08:53:36.398Z,43.72
2018-02-23T08:54:39.554Z,45.33
2018-02-23T08:55:40.997Z,46.65
2018-02-23T08:56:42.395Z,48.53
2018-02-23T08:57:46.737Z,41.33
2018-02-23T08:58:49.933Z,44.90
2018-02-23T08:59:53.411Z,45.90
2018-02-23T09:00:55.399Z,43.40
2018-02-23T09:01:59.299Z,43.05
2018-02-23T09:03:03.769Z,46.13
2018-02-23T09:04:06.929Z,45.53
2018-02-23T09:05:08.394Z,46.58
2018-02-23T09:06:10.073Z,45.83
2018-02-23T09:07:12.965Z,45.78
2018-02-23T09:08:16.041Z,44.20
2018-02-23T09:09:17.421Z,45.53
2018-02-23T09:10:20.516Z,48.95
2018-02-23T09:11:21.939Z,46.95
2018-02-23T09:12:23.683Z,43.83
2018-02-23T09:13:26.297Z,48.40
2018-02-23T09:14:29.428Z,47.70
2018-02-23T09:15:34.627Z,44.35
2018-02-23T09:16:37.335Z,47.10
2018-02-23T09:17:39.397Z,45.25
2018-02-23T09:18:40.820Z,46.50
2018-02-23T09:19:42.947Z,44.33
2018-02-23T09:20:44.335Z,47.03
2018-02-23T09:21:46.846Z,44.65
2018-02-23T09:22:48.233Z,47.85
2018-02-23T09:23:49.629Z,45.22
2018-02-23T09:24:51.030Z,47.35
2018-02-23T09:25:52.405Z,45.75
2018-02-23T09:26:55.206Z,45.45
2018-02-23T09:27:58.516Z,43.35
2018-02-23T09:29:05.840Z,46.78
2018-02-23T09:30:07.528Z,49.67
2018-02-23T09:31:09.400Z,43.42
2018-02-23T09:32:25.929Z,47.38
2018-02-23T09:33:41.281Z,45.47
2018-02-23T09:34:42.702Z,45.70
2018-02-23T09:35:44.275Z,41.20
2018-02-23T09:36:47.498Z,42.30
2018-02-23T09:37:49.927Z,43.10
2018-02-23T09:38:53.014Z,45.95
2018-02-23T09:39:54.639Z,46.53
2018-02-23T09:40:56.723Z,45.33
2018-02-23T09:41:59.857Z,44.50
2018-02-23T09:43:03.811Z,47.33
2018-02-23T09:44:07.349Z,45.78
2018-02-23T09:45:09.241Z,45.92
2018-02-23T09:46:11.042Z,48.72
2018-02-23T09:47:13.150Z,43.22
2018-02-23T09:48:14.565Z,41.90
2018-02-23T09:49:58.755Z,43.72
2018-02-23T09:51:00.145Z,42.60
2018-02-23T09:52:05.511Z,43.13
2018-02-23T09:53:08.119Z,43.40
2018-02-23T09:54:10.003Z,43.83
2018-02-23T09:55:11.486Z,43.00
2018-02-23T09:56:12.900Z,44.07
2018-02-23T09:57:14.295Z,47.13
2018-02-23T09:58:15.693Z,44.15
2018-02-23T09:59:19.091Z,44.33
2018-02-23T10:00:20.493Z,44.67
2018-02-23T10:01:21.902Z,45.65
2018-02-23T10:02:23.291Z,42.25
2018-02-23T10:03:25.857Z,45.60
2018-02-23T10:04:29.113Z,46.33
2018-02-23T10:05:30.543Z,44.78
2018-02-23T10:06:34.521Z,44.63
2018-02-23T10:07:38.036Z,43.80
2018-02-23T10:08:39.925Z,50.28
2018-02-23T10:09:42.087Z,44.80
2018-02-23T10:10:45.187Z,42.80
2018-02-23T10:11:46.594Z,43.40
2018-02-23T10:12:49.116Z,42.60
2018-02-23T10:13:50.505Z,47.65
2018-02-23T10:14:51.944Z,41.55
2018-02-23T10:15:54.300Z,47.85
2018-02-23T10:16:56.163Z,44.53
2018-02-23T10:17:57.853Z,43.55
2018-02-23T10:18:59.283Z,43.78
2018-02-23T10:20:02.386Z,44.33
2018-02-23T10:22:02.439Z,46.88
2018-02-23T10:23:06.719Z,44.88
2018-02-23T10:24:10.369Z,45.05
2018-02-23T10:25:11.798Z,45.97
2018-02-23T10:26:13.927Z,44.35
2018-02-23T10:27:15.335Z,42.97
2018-02-23T10:28:16.732Z,43.97
2018-02-23T10:29:18.855Z,42.80
2018-02-23T10:30:20.329Z,45.33
2018-02-23T10:31:21.735Z,55.00
2018-02-23T10:32:23.138Z,46.35
2018-02-23T10:33:24.791Z,45.10
2018-02-23T10:34:28.078Z,41.42
2018-02-23T10:35:31.013Z,50.78
2018-02-23T10:36:33.796Z,44.58
2018-02-23T10:37:36.523Z,46.78
2018-02-23T10:38:55.174Z,45.97
2018-02-23T10:39:57.253Z,44.78
2018-02-23T10:40:59.491Z,49.17
2018-02-23T10:42:00.909Z,44.42
2018-02-23T10:43:04.911Z,42.90
2018-02-23T10:44:08.669Z,40.88
2018-02-23T10:45:13.555Z,43.58
2018-02-23T10:46:15.399Z,40.30
2018-02-23T10:47:17.260Z,53.80
2018-02-23T10:48:20.083Z,51.17
2018-02-23T10:49:23.388Z,51.90
2018-02-23T10:50:26.777Z,57.88
2018-02-23T10:51:28.952Z,53.28
2018-02-23T10:52:30.342Z,47.15
2018-02-23T10:53:33.230Z,43.25
2018-02-23T10:54:36.385Z,52.88
2018-02-23T10:55:39.325Z,48.97
2018-02-23T10:56:41.034Z,44.35
2018-02-23T10:57:42.462Z,47.47
2018-02-23T10:58:43.919Z,48.25
2018-02-23T10:59:45.345Z,47.00
2018-02-23T11:00:46.733Z,87.03
2018-02-23T11:01:48.172Z,157.05
2018-02-23T11:02:49.591Z,127.95
2018-02-23T11:03:52.751Z,61.10
2018-02-23T11:04:54.189Z,80.95
2018-02-23T11:05:56.003Z,67.07
2018-02-23T11:06:57.949Z,63.78
2018-02-23T11:07:59.420Z,69.57
2018-02-23T11:09:03.853Z,55.70
2018-02-23T11:10:06.173Z,62.15
2018-02-23T11:11:07.965Z,88.32
2018-02-23T11:12:09.895Z,96.35
2018-02-23T11:13:11.347Z,96.70
2018-02-23T11:14:12.747Z,74.97
2018-02-23T11:15:14.175Z,65.22
2018-02-23T11:16:17.346Z,67.10
2018-02-23T11:17:18.777Z,53.72
2018-02-23T11:18:20.177Z,60.35
2018-02-23T11:19:21.585Z,53.40
2018-02-23T11:20:23.749Z,59.78
2018-02-23T11:21:27.271Z,48.90
2018-02-23T11:22:28.994Z,54.65
2018-02-23T11:23:30.392Z,51.35
2018-02-23T11:24:34.053Z,51.40
2018-02-23T11:25:36.957Z,48.00
2018-02-23T11:26:39.478Z,53.47
2018-02-23T11:27:41.197Z,49.90
2018-02-23T11:28:44.304Z,52.22
2018-02-23T11:29:47.417Z,56.70
2018-02-23T11:30:48.850Z,49.83
2018-02-23T11:31:50.983Z,47.33
2018-02-23T11:32:53.129Z,50.33
2018-02-23T11:33:54.940Z,52.83
2018-02-23T11:34:56.921Z,53.45
2018-02-23T11:35:59.182Z,50.85
2018-02-23T11:37:04.071Z,50.85
2018-02-23T11:38:07.715Z,50.92
2018-02-23T11:39:10.859Z,51.88
2018-02-23T11:40:12.983Z,49.42
2018-02-23T11:41:14.383Z,48.65
2018-02-23T11:42:17.485Z,58.75
2018-02-23T11:43:19.151Z,62.67
2018-02-23T11:44:20.545Z,59.78
2018-02-23T11:45:23.028Z,61.10
2018-02-23T11:46:26.409Z,56.60
2018-02-23T11:47:28.143Z,50.72
2018-02-23T11:48:30.346Z,52.65
2018-02-23T11:49:33.113Z,52.75
2018-02-23T11:50:36.887Z,51.50
2018-02-23T11:51:39.623Z,54.80
2018-02-23T11:52:42.751Z,53.13
2018-02-23T11:53:45.255Z,52.28
2018-02-23T11:54:46.669Z,56.05
2018-02-23T11:55:49.784Z,50.90
2018-02-23T11:56:51.956Z,54.55
2018-02-23T11:57:53.403Z,54.60
2018-02-23T11:58:54.988Z,52.67
2018-02-23T11:59:56.684Z,51.10
2018-02-23T12:00:58.226Z,50.33
2018-02-23T12:01:59.625Z,48.67
2018-02-23T12:03:01.015Z,49.08
2018-02-23T12:04:03.398Z,50.53
2018-02-23T12:05:06.949Z,51.08
2018-02-23T12:06:09.194Z,48.63
2018-02-23T12:07:10.581Z,49.13
2018-02-23T12:08:13.692Z,52.90
2018-02-23T12:09:15.098Z,50.28
2018-02-23T12:10:16.525Z,47.40
2018-02-23T12:11:19.047Z,48.47
2018-02-23T12:12:20.449Z,48.90
2018-02-23T12:13:21.835Z,46.17
2018-02-23T12:14:24.494Z,49.30
2018-02-23T12:15:26.187Z,49.95
2018-02-23T12:16:27.915Z,49.72
2018-02-23T12:17:31.017Z,47.58
2018-02-23T12:18:33.751Z,46.37
2018-02-23T12:19:36.201Z,46.13
2018-02-23T12:20:38.125Z,49.17
2018-02-23T12:21:40.052Z,50.33
2018-02-23T12:22:43.193Z,50.28
2018-02-23T12:23:44.588Z,48.17
2018-02-23T12:24:46.003Z,50.90
2018-02-23T12:25:48.161Z,46.65
2018-02-23T12:26:49.565Z,50.28
2018-02-23T12:27:50.962Z,50.75
2018-02-23T12:28:54.323Z,51.45
2018-02-23T12:29:56.079Z,49.08
2018-02-23T12:30:57.853Z,49.63
2018-02-23T12:32:00.953Z,47.78
2018-02-23T12:33:03.983Z,47.97
2018-02-23T12:34:07.565Z,51.33
2018-02-23T12:35:09.292Z,53.42
2018-02-23T12:36:10.766Z,54.88
2018-02-23T12:37:12.159Z,50.30
2018-02-23T12:38:13.560Z,48.75
2018-02-23T12:39:14.970Z,50.20
2018-02-23T12:40:18.083Z,49.88
2018-02-23T12:41:19.479Z,50.80
2018-02-23T12:42:20.899Z,47.85
2018-02-23T12:43:22.292Z,48.17
2018-02-23T12:44:23.674Z,46.95
2018-02-23T12:45:27.031Z,48.05
2018-02-23T12:46:29.179Z,47.60
2018-02-23T12:47:32.217Z,45.50
2018-02-23T12:48:36.450Z,46.65
2018-02-23T12:49:39.609Z,48.90
2018-02-23T12:50:41.035Z,52.58
2018-02-23T12:51:43.543Z,49.55
2018-02-23T12:52:44.990Z,46.40
2018-02-23T12:53:46.393Z,48.50
2018-02-23T12:54:47.782Z,47.28
2018-02-23T12:55:49.206Z,45.72
2018-02-23T12:56:50.618Z,50.42
2018-02-23T12:57:53.492Z,48.15
2018-02-23T12:58:55.037Z,47.03
2018-02-23T12:59:58.548Z,49.83
2018-02-23T13:00:59.995Z,47.70
2018-02-23T13:02:04.964Z,48.15
2018-02-23T13:03:07.499Z,53.38
2018-02-23T13:04:09.242Z,49.28
2018-02-23T13:05:11.023Z,51.25
2018-02-23T13:06:13.565Z,52.83
2018-02-23T13:07:15.694Z,48.13
2018-02-23T13:08:18.815Z,47.65
2018-02-23T13:09:20.207Z,49.58
2018-02-23T13:10:23.338Z,53.13
2018-02-23T13:11:26.479Z,49.63
2018-02-23T13:12:28.385Z,44.25
2018-02-23T13:13:30.566Z,49.20
2018-02-23T13:14:40.106Z,50.25
2018-02-23T13:15:43.546Z,42.58
2018-02-23T13:16:45.239Z,45.35
2018-02-23T13:17:47.753Z,45.00
2018-02-23T13:18:49.175Z,50.75
2018-02-23T13:19:51.322Z,50.75
2018-02-23T13:20:52.921Z,49.63
2018-02-23T13:21:56.205Z,48.10
2018-02-23T13:22:59.459Z,51.95
2018-02-23T13:24:00.871Z,48.72
2018-02-23T13:25:06.143Z,43.72
2018-02-23T13:26:09.665Z,45.95
2018-02-23T13:27:17.849Z,44.42
2018-02-23T13:31:20.483Z,45.35
2018-02-23T13:32:21.917Z,47.15
2018-02-23T13:33:23.344Z,43.85
2018-02-23T13:34:25.229Z,45.35
2018-02-23T13:35:28.765Z,44.25
2018-02-23T13:36:30.155Z,46.78
2018-02-23T13:37:33.291Z,48.87
2018-02-23T13:38:36.253Z,45.33
2018-02-23T13:39:38.983Z,45.38
2018-02-23T13:40:40.448Z,45.42
2018-02-23T13:41:41.871Z,45.90
2018-02-23T13:42:44.423Z,46.92
2018-02-23T13:43:46.545Z,44.20
2018-02-23T13:44:47.947Z,44.67
2018-02-23T13:45:49.383Z,42.33
2018-02-23T13:46:50.785Z,49.00
2018-02-23T13:47:52.217Z,47.58
2018-02-23T13:48:54.398Z,46.20
2018-02-23T13:49:56.211Z,42.50